createdAt,value
2018-07-08T00:00:53.351Z,1020.75
2018-07-08T00:01:53.935Z,1020.69
2018-07-08T00:02:54.521Z,1020.66
2018-07-08T00:03:55.108Z,1020.69
2018-07-08T00:04:55.694Z,1020.64
2018-07-08T00:05:56.331Z,1020.60
2018-07-08T00:06:56.919Z,1020.62
2018-07-08T00:07:57.553Z,1020.63
2018-07-08T00:08:58.143Z,1020.60
2018-07-08T00:09:58.723Z,1020.60
2018-07-08T00:10:59.309Z,1020.55
2018-07-08T00:11:59.895Z,1020.64
2018-07-08T00:13:00.531Z,1020.57
2018-07-08T00:14:01.116Z,1020.57
2018-07-08T00:15:01.753Z,1020.64
2018-07-08T00:16:02.336Z,1020.57
2018-07-08T00:17:02.918Z,1020.64
2018-07-08T00:18:03.497Z,1020.59
2018-07-08T00:19:04.088Z,1020.59
2018-07-08T00:20:04.673Z,1020.66
2018-07-08T00:21:05.259Z,1020.62
2018-07-08T00:22:05.846Z,1020.65
2018-07-08T00:23:06.428Z,1020.61
2018-07-08T00:24:07.020Z,1020.68
2018-07-08T00:25:07.655Z,1020.64
2018-07-08T00:26:08.289Z,1020.57
2018-07-08T00:27:08.921Z,1020.52
2018-07-08T00:28:09.511Z,1020.60
2018-07-08T00:29:10.146Z,1020.52
2018-07-08T00:30:10.782Z,1020.56
2018-07-08T00:31:11.368Z,1020.50
2018-07-08T00:32:11.956Z,1020.54
2018-07-08T00:33:12.546Z,1020.54
2018-07-08T00:34:13.169Z,1020.53
2018-07-08T00:35:13.752Z,1020.56
2018-07-08T00:36:14.341Z,1020.48
2018-07-08T00:37:14.929Z,1020.53
2018-07-08T00:38:15.516Z,1020.53
2018-07-08T00:39:16.151Z,1020.46
2018-07-08T00:40:16.736Z,1020.54
2018-07-08T00:41:17.322Z,1020.57
2018-07-08T00:42:17.902Z,1020.51
2018-07-08T00:43:18.540Z,1020.59
2018-07-08T00:44:19.123Z,1020.58
2018-07-08T00:45:19.710Z,1020.49
2018-07-08T00:46:20.347Z,1020.43
2018-07-08T00:47:20.983Z,1020.55
2018-07-08T00:48:21.566Z,1020.52
2018-07-08T00:49:22.156Z,1020.54
2018-07-08T00:50:22.735Z,1020.57
2018-07-08T00:51:23.321Z,1020.52
2018-07-08T00:52:23.908Z,1020.45
2018-07-08T00:53:24.492Z,1020.52
2018-07-08T00:54:25.079Z,1020.49
2018-07-08T00:55:25.659Z,1020.51
2018-07-08T00:56:26.249Z,1020.44
2018-07-08T00:57:26.838Z,1020.52
2018-07-08T00:58:27.424Z,1020.44
2018-07-08T00:59:28.057Z,1020.49
2018-07-08T01:00:28.655Z,1020.49
2018-07-08T01:01:29.235Z,1020.45
2018-07-08T01:02:29.816Z,1020.49
2018-07-08T01:03:30.449Z,1020.35
2018-07-08T01:04:31.035Z,1020.36
2018-07-08T01:05:31.621Z,1020.40
2018-07-08T01:06:32.301Z,1020.40
2018-07-08T01:07:32.933Z,1020.43
2018-07-08T01:08:33.524Z,1020.41
2018-07-08T01:09:34.101Z,1020.35
2018-07-08T01:10:34.695Z,1020.39
2018-07-08T01:11:35.278Z,1020.36
2018-07-08T01:12:35.911Z,1020.33
2018-07-08T01:13:36.497Z,1020.36
2018-07-08T01:14:37.079Z,1020.43
2018-07-08T01:15:37.666Z,1020.33
2018-07-08T01:16:38.248Z,1020.36
2018-07-08T01:17:38.831Z,1020.42
2018-07-08T01:18:39.420Z,1020.35
2018-07-08T01:19:40.050Z,1020.32
2018-07-08T01:20:40.634Z,1020.39
2018-07-08T01:21:41.220Z,1020.31
2018-07-08T01:22:41.861Z,1020.33
2018-07-08T01:23:42.446Z,1020.26
2018-07-08T01:24:43.032Z,1020.33
2018-07-08T01:25:43.608Z,1020.30
2018-07-08T01:26:44.243Z,1020.26
2018-07-08T01:27:44.824Z,1020.29
2018-07-08T01:28:45.407Z,1020.26
2018-07-08T01:29:45.989Z,1020.30
2018-07-08T01:30:46.576Z,1020.31
2018-07-08T01:31:47.216Z,1020.31
2018-07-08T01:32:47.799Z,1020.32
2018-07-08T01:33:48.380Z,1020.21
2018-07-08T01:34:48.967Z,1020.24
2018-07-08T01:35:49.599Z,1020.28
2018-07-08T01:36:50.187Z,1020.26
2018-07-08T01:37:50.768Z,1020.20
2018-07-08T01:38:51.350Z,1020.26
2018-07-08T01:39:51.984Z,1020.17
2018-07-08T01:40:52.573Z,1020.30
2018-07-08T01:41:53.199Z,1020.24
2018-07-08T01:42:53.790Z,1020.16
2018-07-08T01:43:54.378Z,1020.18
2018-07-08T01:44:54.965Z,1020.18
2018-07-08T01:45:55.596Z,1020.17
2018-07-08T01:46:56.227Z,1020.17
2018-07-08T01:47:56.815Z,1020.19
2018-07-08T01:48:57.401Z,1020.19
2018-07-08T01:49:57.988Z,1020.15
2018-07-08T01:50:58.626Z,1020.23
2018-07-08T01:51:59.212Z,1020.16
2018-07-08T01:52:59.790Z,1020.14
2018-07-08T01:54:00.381Z,1020.14
2018-07-08T01:55:00.966Z,1020.09
2018-07-08T01:56:01.753Z,1020.09
2018-07-08T01:57:02.339Z,1020.12
2018-07-08T01:58:02.927Z,1020.19
2018-07-08T01:59:03.562Z,1020.14
2018-07-08T02:00:04.151Z,1020.14
2018-07-08T02:01:04.735Z,1020.11
2018-07-08T02:02:05.321Z,1020.08
2018-07-08T02:03:05.907Z,1020.02
2018-07-08T02:04:06.493Z,1020.08
2018-07-08T02:05:07.080Z,1020.03
2018-07-08T02:06:07.664Z,1020.04
2018-07-08T02:07:08.253Z,1020.02
2018-07-08T02:08:08.889Z,1020.02
2018-07-08T02:09:09.521Z,1020.04
2018-07-08T02:10:10.104Z,1019.98
2018-07-08T02:11:10.693Z,1020.01
2018-07-08T02:12:11.279Z,1019.97
2018-07-08T02:13:11.867Z,1019.97
2018-07-08T02:14:12.452Z,1019.97
2018-07-08T02:15:13.039Z,1019.97
2018-07-08T02:16:13.628Z,1019.99
2018-07-08T02:17:14.208Z,1019.98
2018-07-08T02:18:14.794Z,1019.87
2018-07-08T02:19:15.431Z,1019.99
2018-07-08T02:20:16.066Z,1019.92
2018-07-08T02:21:16.653Z,1019.94
2018-07-08T02:22:17.235Z,1019.94
2018-07-08T02:23:17.821Z,1019.86
2018-07-08T02:24:18.406Z,1019.82
2018-07-08T02:25:19.038Z,1019.94
2018-07-08T02:26:19.625Z,1019.89
2018-07-08T02:27:20.263Z,1019.85
2018-07-08T02:28:20.845Z,1019.84
2018-07-08T02:29:21.436Z,1019.90
2018-07-08T02:30:22.021Z,1019.75
2018-07-08T02:31:22.607Z,1019.79
2018-07-08T02:32:23.239Z,1019.70
2018-07-08T02:33:23.827Z,1019.66
2018-07-08T02:34:24.416Z,1019.72
2018-07-08T02:35:25.000Z,1019.77
2018-07-08T02:36:25.631Z,1019.71
2018-07-08T02:37:26.220Z,1019.82
2018-07-08T02:38:26.801Z,1019.85
2018-07-08T02:39:27.439Z,1019.78
2018-07-08T02:40:28.068Z,1019.82
2018-07-08T02:41:28.707Z,1019.87
2018-07-08T02:42:29.298Z,1019.77
2018-07-08T02:43:29.876Z,1019.85
2018-07-08T02:44:30.465Z,1019.77
2018-07-08T02:45:31.101Z,1019.86
2018-07-08T02:46:31.680Z,1019.85
2018-07-08T02:47:32.268Z,1019.89
2018-07-08T02:48:32.900Z,1019.81
2018-07-08T02:49:33.486Z,1019.85
2018-07-08T02:50:34.075Z,1019.82
2018-07-08T02:51:34.670Z,1019.80
2018-07-08T02:52:35.253Z,1019.74
2018-07-08T02:53:35.828Z,1019.84
2018-07-08T02:54:36.418Z,1019.79
2018-07-08T02:55:37.055Z,1019.80
2018-07-08T02:56:37.692Z,1019.86
2018-07-08T02:57:38.325Z,1019.82
2018-07-08T02:58:38.958Z,1019.80
2018-07-08T02:59:39.589Z,1019.78
2018-07-08T03:00:40.179Z,1019.81
2018-07-08T03:01:40.761Z,1019.82
2018-07-08T03:02:41.350Z,1019.82
2018-07-08T03:03:41.982Z,1019.90
2018-07-08T03:04:42.568Z,1019.81
2018-07-08T03:05:43.162Z,1019.87
2018-07-08T03:06:43.733Z,1019.80
2018-07-08T03:07:44.322Z,1019.77
2018-07-08T03:08:44.907Z,1019.87
2018-07-08T03:09:45.493Z,1019.79
2018-07-08T03:10:46.074Z,1019.83
2018-07-08T03:11:46.652Z,1019.80
2018-07-08T03:12:47.282Z,1019.80
2018-07-08T03:13:47.917Z,1019.80
2018-07-08T03:14:48.553Z,1019.80
2018-07-08T03:17:52.535Z,1019.83
2018-07-08T03:18:53.157Z,1019.81
2018-07-08T03:19:53.730Z,1019.89
2018-07-08T03:20:54.313Z,1019.89
2018-07-08T03:22:08.655Z,1019.84
2018-07-08T03:23:09.249Z,1019.92
2018-07-08T03:24:09.863Z,1019.87
2018-07-08T03:26:12.025Z,1019.83
2018-07-08T03:27:12.604Z,1019.84
2018-07-08T03:28:13.185Z,1019.83
2018-07-08T03:29:13.766Z,1019.85
2018-07-08T03:30:14.339Z,1019.82
2018-07-08T03:31:14.921Z,1019.77
2018-07-08T03:32:15.551Z,1019.78
2018-07-08T03:33:16.181Z,1019.81
2018-07-08T03:34:16.759Z,1019.79
2018-07-08T03:35:17.487Z,1019.80
2018-07-08T03:36:18.060Z,1019.76
2018-07-08T03:37:18.638Z,1019.82
2018-07-08T03:38:19.216Z,1019.76
2018-07-08T03:39:19.796Z,1019.84
2018-07-08T03:40:20.372Z,1019.77
2018-07-08T03:41:20.955Z,1019.74
2018-07-08T03:42:21.535Z,1019.84
2018-07-08T03:43:22.115Z,1019.84
2018-07-08T03:44:22.691Z,1019.85
2018-07-08T03:45:23.269Z,1019.85
2018-07-08T03:46:23.853Z,1019.80
2018-07-08T03:47:24.477Z,1019.81
2018-07-08T03:48:25.107Z,1019.83
2018-07-08T03:49:25.683Z,1019.83
2018-07-08T03:50:26.308Z,1019.81
2018-07-08T03:51:26.940Z,1019.82
2018-07-08T03:52:27.578Z,1019.88
2018-07-08T03:53:28.201Z,1019.77
2018-07-08T03:54:28.777Z,1019.81
2018-07-08T03:55:29.356Z,1019.78
2018-07-08T03:56:29.936Z,1019.85
2018-07-08T03:57:30.518Z,1019.82
2018-07-08T03:58:31.150Z,1019.83
2018-07-08T03:59:31.722Z,1019.83
2018-07-08T04:00:32.302Z,1019.86
2018-07-08T04:01:32.884Z,1019.80
2018-07-08T04:02:33.465Z,1019.83
2018-07-08T04:03:55.823Z,1019.85
2018-07-08T04:05:10.166Z,1019.82
2018-07-08T04:13:18.465Z,1019.83
2018-07-08T04:14:19.056Z,1019.89
2018-07-08T04:15:19.666Z,1019.87
2018-07-08T04:16:20.226Z,1019.77
2018-07-08T04:17:20.812Z,1019.86
2018-07-08T04:18:21.400Z,1019.86
2018-07-08T04:19:22.037Z,1019.81
2018-07-08T04:20:22.676Z,1019.88
2018-07-08T04:21:23.263Z,1019.86
2018-07-08T04:22:23.844Z,1019.89
2018-07-08T04:23:24.433Z,1019.85
2018-07-08T04:25:26.648Z,1019.84
2018-07-08T04:26:27.234Z,1019.84
2018-07-08T04:27:27.816Z,1019.91
2018-07-08T04:28:28.448Z,1019.93
2018-07-08T04:29:29.036Z,1019.95
2018-07-08T04:30:29.763Z,1019.91
2018-07-08T04:31:30.252Z,1019.96
2018-07-08T04:32:30.845Z,1019.97
2018-07-08T04:33:31.428Z,1019.87
2018-07-08T04:34:32.012Z,1019.95
2018-07-08T04:35:32.641Z,1019.97
2018-07-08T04:36:33.228Z,1020.03
2018-07-08T04:37:33.903Z,1019.98
2018-07-08T04:38:34.453Z,1019.97
2018-07-08T04:39:35.037Z,1019.96
2018-07-08T04:40:35.618Z,1019.96
2018-07-08T04:41:36.208Z,1020.01
2018-07-08T04:42:36.846Z,1019.92
2018-07-08T04:43:37.482Z,1019.97
2018-07-08T04:44:38.117Z,1019.92
2018-07-08T04:45:38.699Z,1019.93
2018-07-08T04:46:39.288Z,1019.93
2018-07-08T04:47:39.873Z,1019.90
2018-07-08T04:48:40.460Z,1019.89
2018-07-08T04:49:41.095Z,1019.90
2018-07-08T04:50:41.674Z,1019.88
2018-07-08T04:51:42.308Z,1019.95
2018-07-08T04:52:42.893Z,1019.86
2018-07-08T04:53:43.480Z,1019.79
2018-07-08T04:54:44.118Z,1019.80
2018-07-08T04:55:44.699Z,1019.82
2018-07-08T04:56:45.289Z,1019.80
2018-07-08T04:57:45.873Z,1019.84
2018-07-08T04:58:46.455Z,1019.81
2018-07-08T04:59:47.092Z,1019.90
2018-07-08T05:00:47.698Z,1019.83
2018-07-08T05:01:48.264Z,1019.88
2018-07-08T05:02:48.899Z,1019.82
2018-07-08T05:03:54.532Z,1019.85
2018-07-08T05:04:55.121Z,1019.82
2018-07-08T05:05:55.708Z,1019.83
2018-07-08T05:06:56.296Z,1019.79
2018-07-08T05:07:56.881Z,1019.80
2018-07-08T05:08:57.517Z,1019.81
2018-07-08T05:09:58.100Z,1019.79
2018-07-08T05:10:58.687Z,1019.71
2018-07-08T05:11:59.322Z,1019.83
2018-07-08T05:12:59.908Z,1019.80
2018-07-08T05:14:00.492Z,1019.83
2018-07-08T05:15:01.076Z,1019.81
2018-07-08T05:16:01.665Z,1019.85
2018-07-08T05:17:02.245Z,1019.83
2018-07-08T05:18:02.831Z,1019.77
2018-07-08T05:19:03.414Z,1019.84
2018-07-08T05:20:04.001Z,1019.74
2018-07-08T05:21:04.635Z,1019.74
2018-07-08T05:22:05.272Z,1019.79
2018-07-08T05:23:05.858Z,1019.80
2018-07-08T05:24:06.446Z,1019.80
2018-07-08T05:25:07.034Z,1019.76
2018-07-08T05:26:07.613Z,1019.81
2018-07-08T05:27:08.201Z,1019.87
2018-07-08T05:28:08.789Z,1019.83
2018-07-08T05:29:09.425Z,1019.85
2018-07-08T05:30:10.010Z,1019.91
2018-07-08T05:31:10.695Z,1019.82
2018-07-08T05:32:11.379Z,1019.89
2018-07-08T05:33:11.966Z,1019.83
2018-07-08T05:34:12.552Z,1019.91
2018-07-08T05:35:13.137Z,1019.88
2018-07-08T05:36:13.817Z,1019.91
2018-07-08T05:37:14.453Z,1019.86
2018-07-08T05:38:15.043Z,1019.98
2018-07-08T05:39:15.675Z,1019.87
2018-07-08T05:40:16.260Z,1019.86
2018-07-08T05:41:16.846Z,1019.96
2018-07-08T05:42:17.432Z,1019.91
2018-07-08T05:43:18.016Z,1019.96
2018-07-08T05:44:18.602Z,1019.96
2018-07-08T05:45:19.190Z,1020.01
2018-07-08T05:46:19.779Z,1020.02
2018-07-08T05:47:20.358Z,1020.01
2018-07-08T05:48:20.943Z,1020.00
2018-07-08T05:49:21.580Z,1019.99
2018-07-08T05:50:22.239Z,1019.97
2018-07-08T05:51:22.801Z,1020.00
2018-07-08T05:52:23.379Z,1019.98
2018-07-08T05:53:23.960Z,1020.03
2018-07-08T05:54:24.550Z,1020.04
2018-07-08T05:55:25.137Z,1020.00
2018-07-08T05:56:25.772Z,1020.02
2018-07-08T05:57:26.360Z,1020.07
2018-07-08T05:58:26.987Z,1020.03
2018-07-08T05:59:27.573Z,1020.15
2018-07-08T06:00:28.157Z,1020.09
2018-07-08T06:01:28.738Z,1020.15
2018-07-08T06:02:29.324Z,1020.10
2018-07-08T06:03:29.906Z,1020.19
2018-07-08T06:04:30.531Z,1020.19
2018-07-08T06:05:31.077Z,1020.21
2018-07-08T06:06:31.662Z,1020.30
2018-07-08T06:07:32.243Z,1020.29
2018-07-08T06:08:32.832Z,1020.27
2018-07-08T06:09:33.417Z,1020.26
2018-07-08T06:10:34.049Z,1020.26
2018-07-08T06:11:34.687Z,1020.20
2018-07-08T06:12:35.270Z,1020.20
2018-07-08T06:13:35.905Z,1020.26
2018-07-08T06:14:36.491Z,1020.30
2018-07-08T06:15:37.073Z,1020.24
2018-07-08T06:16:37.663Z,1020.27
2018-07-08T06:17:38.246Z,1020.30
2018-07-08T06:18:38.826Z,1020.30
2018-07-08T06:19:39.415Z,1020.33
2018-07-08T06:20:39.998Z,1020.35
2018-07-08T06:21:40.580Z,1020.38
2018-07-08T06:22:41.163Z,1020.33
2018-07-08T06:23:41.748Z,1020.31
2018-07-08T06:24:42.326Z,1020.35
2018-07-08T06:25:42.913Z,1020.37
2018-07-08T06:26:43.501Z,1020.35
2018-07-08T06:27:44.085Z,1020.35
2018-07-08T06:28:44.672Z,1020.38
2018-07-08T06:29:45.309Z,1020.33
2018-07-08T06:30:45.895Z,1020.35
2018-07-08T06:31:46.509Z,1020.35
2018-07-08T06:32:47.070Z,1020.29
2018-07-08T06:33:47.694Z,1020.31
2018-07-08T06:34:48.281Z,1020.35
2018-07-08T06:35:48.866Z,1020.33
2018-07-08T06:36:49.446Z,1020.30
2018-07-08T06:37:50.035Z,1020.35
2018-07-08T06:38:50.672Z,1020.31
2018-07-08T06:39:51.257Z,1020.27
2018-07-08T06:40:51.840Z,1020.35
2018-07-08T06:41:52.428Z,1020.31
2018-07-08T06:42:53.009Z,1020.28
2018-07-08T06:43:53.600Z,1020.34
2018-07-08T06:44:54.179Z,1020.33
2018-07-08T06:45:54.815Z,1020.38
2018-07-08T06:46:55.394Z,1020.38
2018-07-08T06:47:56.034Z,1020.38
2018-07-08T06:48:56.621Z,1020.41
2018-07-08T06:49:57.206Z,1020.36
2018-07-08T06:50:57.792Z,1020.40
2018-07-08T06:51:58.435Z,1020.34
2018-07-08T06:52:59.016Z,1020.43
2018-07-08T06:53:59.602Z,1020.34
2018-07-08T06:55:00.189Z,1020.35
2018-07-08T06:56:00.777Z,1020.36
2018-07-08T06:57:01.364Z,1020.32
2018-07-08T06:58:02.052Z,1020.37
2018-07-08T06:59:02.633Z,1020.38
2018-07-08T07:00:03.210Z,1020.32
2018-07-08T07:01:03.793Z,1020.39
2018-07-08T07:02:04.379Z,1020.38
2018-07-08T07:03:05.012Z,1020.38
2018-07-08T07:04:05.597Z,1020.44
2018-07-08T07:05:06.223Z,1020.36
2018-07-08T07:06:06.813Z,1020.34
2018-07-08T07:07:07.392Z,1020.37
2018-07-08T07:08:07.979Z,1020.37
2018-07-08T07:09:08.565Z,1020.40
2018-07-08T07:10:09.201Z,1020.37
2018-07-08T07:11:09.786Z,1020.36
2018-07-08T07:12:10.373Z,1020.38
2018-07-08T07:13:10.958Z,1020.41
2018-07-08T07:14:11.543Z,1020.38
2018-07-08T07:15:12.181Z,1020.43
2018-07-08T07:16:12.816Z,1020.41
2018-07-08T07:17:13.402Z,1020.34
2018-07-08T07:18:14.037Z,1020.35
2018-07-08T07:19:14.624Z,1020.34
2018-07-08T07:20:15.210Z,1020.44
2018-07-08T07:21:15.847Z,1020.43
2018-07-08T07:22:16.431Z,1020.49
2018-07-08T07:23:17.072Z,1020.41
2018-07-08T07:24:17.661Z,1020.46
2018-07-08T07:25:18.246Z,1020.52
2018-07-08T07:26:18.826Z,1020.47
2018-07-08T07:27:19.416Z,1020.46
2018-07-08T07:28:20.000Z,1020.47
2018-07-08T07:29:20.635Z,1020.56
2018-07-08T07:30:21.223Z,1020.54
2018-07-08T07:31:22.005Z,1020.57
2018-07-08T07:32:22.593Z,1020.58
2018-07-08T07:33:23.178Z,1020.62
2018-07-08T07:34:23.762Z,1020.59
2018-07-08T07:35:24.351Z,1020.58
2018-07-08T07:36:24.928Z,1020.59
2018-07-08T07:37:25.608Z,1020.58
2018-07-08T07:38:26.197Z,1020.52
2018-07-08T07:39:26.787Z,1020.54
2018-07-08T07:40:27.372Z,1020.59
2018-07-08T07:41:27.961Z,1020.52
2018-07-08T07:42:28.549Z,1020.60
2018-07-08T07:43:29.133Z,1020.55
2018-07-08T07:44:29.719Z,1020.55
2018-07-08T07:45:30.347Z,1020.60
2018-07-08T07:46:30.885Z,1020.64
2018-07-08T07:47:31.473Z,1020.52
2018-07-08T07:48:32.108Z,1020.63
2018-07-08T07:49:32.694Z,1020.65
2018-07-08T07:50:33.274Z,1020.63
2018-07-08T07:51:33.865Z,1020.66
2018-07-08T07:52:34.499Z,1020.61
2018-07-08T07:53:35.139Z,1020.63
2018-07-08T07:54:35.726Z,1020.63
2018-07-08T07:55:36.310Z,1020.65
2018-07-08T07:56:36.897Z,1020.72
2018-07-08T07:57:37.491Z,1020.68
2018-07-08T07:58:38.119Z,1020.60
2018-07-08T07:59:38.696Z,1020.69
2018-07-08T08:00:39.281Z,1020.67
2018-07-08T08:01:39.869Z,1020.68
2018-07-08T08:02:40.455Z,1020.71
2018-07-08T08:03:41.084Z,1020.67
2018-07-08T08:04:41.669Z,1020.66
2018-07-08T08:05:42.253Z,1020.71
2018-07-08T08:06:42.889Z,1020.68
2018-07-08T08:07:48.579Z,1020.75
2018-07-08T08:08:49.215Z,1020.76
2018-07-08T08:09:49.800Z,1020.72
2018-07-08T08:10:50.547Z,1020.79
2018-07-08T08:11:51.020Z,1020.75
2018-07-08T08:12:51.604Z,1020.86
2018-07-08T08:13:52.251Z,1020.80
2018-07-08T08:14:52.771Z,1020.81
2018-07-08T08:15:53.362Z,1020.82
2018-07-08T08:16:53.997Z,1020.77
2018-07-08T08:17:54.627Z,1020.82
2018-07-08T08:18:55.215Z,1020.84
2018-07-08T08:19:55.800Z,1020.85
2018-07-08T08:20:56.397Z,1020.82
2018-07-08T08:21:57.017Z,1020.86
2018-07-08T08:22:57.598Z,1020.88
2018-07-08T08:23:58.238Z,1020.88
2018-07-08T08:24:58.825Z,1020.89
2018-07-08T08:25:59.405Z,1020.87
2018-07-08T08:27:00.049Z,1020.90
2018-07-08T08:28:00.678Z,1020.88
2018-07-08T08:29:01.264Z,1020.78
2018-07-08T08:30:01.850Z,1020.86
2018-07-08T08:31:02.431Z,1020.87
2018-07-08T08:32:03.020Z,1020.85
2018-07-08T08:33:03.654Z,1020.87
2018-07-08T08:34:04.243Z,1020.84
2018-07-08T08:35:04.876Z,1020.90
2018-07-08T08:36:05.460Z,1020.92
2018-07-08T08:37:06.045Z,1020.90
2018-07-08T08:38:06.693Z,1020.94
2018-07-08T08:39:07.259Z,1020.88
2018-07-08T08:40:07.895Z,1020.85
2018-07-08T08:41:08.527Z,1020.89
2018-07-08T08:42:09.111Z,1020.82
2018-07-08T08:43:09.696Z,1020.87
2018-07-08T08:44:10.278Z,1020.87
2018-07-08T08:45:10.915Z,1020.92
2018-07-08T08:46:11.502Z,1020.95
2018-07-08T08:47:12.135Z,1020.88
2018-07-08T08:48:12.732Z,1020.90
2018-07-08T08:49:13.359Z,1020.93
2018-07-08T08:50:13.990Z,1020.83
2018-07-08T08:51:14.583Z,1020.88
2018-07-08T08:52:15.166Z,1020.89
2018-07-08T08:53:15.749Z,1020.89
2018-07-08T08:54:16.336Z,1020.86
2018-07-08T08:55:16.918Z,1020.82
2018-07-08T08:56:17.505Z,1020.86
2018-07-08T08:57:18.088Z,1020.84
2018-07-08T08:58:18.732Z,1020.88
2018-07-08T08:59:19.320Z,1020.95
2018-07-08T09:00:19.956Z,1020.84
2018-07-08T09:01:20.541Z,1020.90
2018-07-08T09:02:21.132Z,1020.96
2018-07-08T09:03:21.712Z,1020.97
2018-07-08T09:04:22.298Z,1020.92
2018-07-08T09:05:22.884Z,1020.84
2018-07-08T09:06:23.522Z,1020.96
2018-07-08T09:07:24.110Z,1020.88
2018-07-08T09:08:24.691Z,1020.92
2018-07-08T09:09:25.282Z,1020.89
2018-07-08T09:10:25.869Z,1020.91
2018-07-08T09:11:26.456Z,1020.90
2018-07-08T09:12:27.071Z,1020.91
2018-07-08T09:13:27.678Z,1020.86
2018-07-08T09:14:28.265Z,1020.89
2018-07-08T09:15:28.849Z,1020.97
2018-07-08T09:16:29.431Z,1021.00
2018-07-08T09:17:30.015Z,1020.92
2018-07-08T09:18:30.604Z,1020.95
2018-07-08T09:19:31.190Z,1020.92
2018-07-08T09:20:31.779Z,1020.91
2018-07-08T09:21:32.417Z,1020.96
2018-07-08T09:22:32.998Z,1020.94
2018-07-08T09:23:33.588Z,1020.95
2018-07-08T09:24:34.233Z,1020.98
2018-07-08T09:25:34.860Z,1020.93
2018-07-08T09:26:35.441Z,1020.96
2018-07-08T09:27:36.077Z,1020.89
2018-07-08T09:28:36.665Z,1020.95
2018-07-08T09:29:37.254Z,1020.91
2018-07-08T09:30:37.842Z,1020.85
2018-07-08T09:31:38.424Z,1020.93
2018-07-08T09:32:39.011Z,1020.87
2018-07-08T09:33:39.640Z,1020.84
2018-07-08T09:34:40.229Z,1020.85
2018-07-08T09:35:40.815Z,1020.83
2018-07-08T09:36:41.402Z,1020.85
2018-07-08T09:37:41.988Z,1020.86
2018-07-08T09:38:42.601Z,1020.81
2018-07-08T09:39:43.159Z,1020.85
2018-07-08T09:40:43.742Z,1020.94
2018-07-08T09:41:44.328Z,1020.84
2018-07-08T09:42:44.962Z,1020.91
2018-07-08T09:43:45.548Z,1020.86
2018-07-08T09:44:46.182Z,1020.84
2018-07-08T09:45:46.775Z,1020.97
2018-07-08T09:46:47.366Z,1020.98
2018-07-08T09:47:48.009Z,1020.91
2018-07-08T09:48:48.597Z,1020.95
2018-07-08T09:49:49.240Z,1021.03
2018-07-08T09:50:49.831Z,1021.01
2018-07-08T09:51:50.419Z,1020.96
2018-07-08T09:52:51.015Z,1021.02
2018-07-08T09:53:51.598Z,1021.07
2018-07-08T09:54:52.195Z,1021.03
2018-07-08T09:55:52.781Z,1021.02
2018-07-08T09:56:53.373Z,1021.08
2018-07-08T09:57:54.009Z,1021.07
2018-07-08T09:58:54.601Z,1021.00
2018-07-08T09:59:55.249Z,1021.02
2018-07-08T10:00:55.841Z,1021.07
2018-07-08T10:01:56.427Z,1021.00
2018-07-08T10:02:57.017Z,1021.05
2018-07-08T10:03:57.655Z,1021.07
2018-07-08T10:04:58.330Z,1021.06
2018-07-08T10:05:58.894Z,1021.08
2018-07-08T10:06:59.488Z,1021.09
2018-07-08T10:08:00.072Z,1021.11
2018-07-08T10:09:00.671Z,1021.07
2018-07-08T10:10:01.304Z,1021.11
2018-07-08T10:11:01.901Z,1021.03
2018-07-08T10:12:02.486Z,1021.06
2018-07-08T10:13:03.084Z,1021.08
2018-07-08T10:14:03.714Z,1021.02
2018-07-08T10:15:04.263Z,1021.12
2018-07-08T10:16:04.849Z,1021.12
2018-07-08T10:17:05.495Z,1021.05
2018-07-08T10:18:06.088Z,1021.05
2018-07-08T10:19:06.681Z,1021.16
2018-07-08T10:20:07.295Z,1021.13
2018-07-08T10:21:08.056Z,1021.04
2018-07-08T10:22:08.696Z,1021.03
2018-07-08T10:23:09.282Z,1021.03
2018-07-08T10:24:09.873Z,1021.07
2018-07-08T10:25:10.475Z,1021.16
2018-07-08T10:26:11.054Z,1021.11
2018-07-08T10:27:11.648Z,1021.07
2018-07-08T10:28:12.285Z,1021.05
2018-07-08T10:29:12.876Z,1021.17
2018-07-08T10:30:13.479Z,1021.13
2018-07-08T10:31:14.069Z,1021.12
2018-07-08T10:32:14.663Z,1021.10
2018-07-08T10:33:15.243Z,1021.20
2018-07-08T10:34:15.835Z,1021.15
2018-07-08T10:35:16.429Z,1021.17
2018-07-08T10:36:17.074Z,1021.18
2018-07-08T10:37:17.723Z,1021.15
2018-07-08T10:38:18.365Z,1021.17
2018-07-08T10:39:19.103Z,1021.16
2018-07-08T10:40:19.696Z,1021.23
2018-07-08T10:41:20.289Z,1021.26
2018-07-08T10:42:20.882Z,1021.27
2018-07-08T10:43:21.503Z,1021.19
2018-07-08T10:44:22.069Z,1021.25
2018-07-08T10:45:22.663Z,1021.37
2018-07-08T10:46:23.254Z,1021.30
2018-07-08T10:47:23.849Z,1021.28
2018-07-08T10:48:24.486Z,1021.26
2018-07-08T10:49:25.429Z,1021.27
2018-07-08T10:50:26.022Z,1021.21
2018-07-08T10:51:26.617Z,1021.19
2018-07-08T10:52:27.262Z,1021.22
2018-07-08T10:53:27.860Z,1021.30
2018-07-08T10:54:28.452Z,1021.30
2018-07-08T10:55:29.103Z,1021.23
2018-07-08T10:56:29.640Z,1021.26
2018-07-08T10:57:30.228Z,1021.34
2018-07-08T10:58:30.875Z,1021.33
2018-07-08T10:59:31.510Z,1021.33
2018-07-08T11:00:32.100Z,1021.26
2018-07-08T11:01:32.697Z,1021.26
2018-07-08T11:02:33.340Z,1021.23
2018-07-08T11:03:33.931Z,1021.26
2018-07-08T11:04:34.538Z,1021.39
2018-07-08T11:05:35.123Z,1021.32
2018-07-08T11:06:35.764Z,1021.31
2018-07-08T11:07:36.408Z,1021.31
2018-07-08T11:08:36.994Z,1021.36
2018-07-08T11:09:37.637Z,1021.31
2018-07-08T11:10:38.244Z,1021.37
2018-07-08T11:11:38.823Z,1021.37
2018-07-08T11:12:39.471Z,1021.31
2018-07-08T11:13:40.118Z,1021.32
2018-07-08T11:14:40.712Z,1021.28
2018-07-08T11:15:41.346Z,1021.31
2018-07-08T11:16:41.946Z,1021.33
2018-07-08T11:17:42.544Z,1021.30
2018-07-08T11:18:43.184Z,1021.40
2018-07-08T11:19:43.824Z,1021.34
2018-07-08T11:20:44.457Z,1021.35
2018-07-08T11:21:45.018Z,1021.36
2018-07-08T11:22:45.603Z,1021.35
2018-07-08T11:23:46.196Z,1021.33
2018-07-08T11:24:46.793Z,1021.36
2018-07-08T11:25:47.383Z,1021.26
2018-07-08T11:26:48.028Z,1021.35
2018-07-08T11:27:48.622Z,1021.37
2018-07-08T11:28:49.259Z,1021.35
2018-07-08T11:29:49.854Z,1021.29
2018-07-08T11:30:50.548Z,1021.36
2018-07-08T11:31:51.241Z,1021.35
2018-07-08T11:32:51.842Z,1021.36
2018-07-08T11:33:52.428Z,1021.37
2018-07-08T11:34:53.027Z,1021.24
2018-07-08T11:35:53.616Z,1021.36
2018-07-08T11:36:54.310Z,1021.25
2018-07-08T11:37:54.956Z,1021.26
2018-07-08T11:38:55.546Z,1021.44
2018-07-08T11:39:56.147Z,1021.30
2018-07-08T11:40:56.742Z,1021.40
2018-07-08T11:41:57.334Z,1021.35
2018-07-08T11:42:57.940Z,1021.37
2018-07-08T11:43:58.574Z,1021.36
2018-07-08T11:44:59.175Z,1021.38
2018-07-08T11:45:59.774Z,1021.36
2018-07-08T11:47:00.465Z,1021.42
2018-07-08T11:48:01.060Z,1021.35
2018-07-08T11:49:01.660Z,1021.35
2018-07-08T11:50:02.301Z,1021.33
2018-07-08T11:51:02.902Z,1021.32
2018-07-08T11:52:03.849Z,1021.39
2018-07-08T11:53:04.448Z,1021.36
2018-07-08T11:54:05.047Z,1021.30
2018-07-08T11:55:05.643Z,1021.39
2018-07-08T11:56:06.242Z,1021.31
2018-07-08T11:57:06.829Z,1021.35
2018-07-08T11:58:07.471Z,1021.39
2018-07-08T12:00:09.643Z,1021.35
2018-07-08T12:03:27.272Z,1021.36
2018-07-08T12:04:27.913Z,1021.28
2018-07-08T12:05:28.561Z,1021.29
2018-07-08T12:06:29.247Z,1021.26
2018-07-08T12:07:29.766Z,1021.33
2018-07-08T12:08:30.409Z,1021.20
2018-07-08T12:09:31.007Z,1021.35
2018-07-08T12:10:31.608Z,1021.24
2018-07-08T12:11:32.254Z,1021.27
2018-07-08T12:12:32.853Z,1021.32
2018-07-08T12:13:33.499Z,1021.28
2018-07-08T12:14:34.145Z,1021.29
2018-07-08T12:15:34.700Z,1021.20
2018-07-08T12:16:35.294Z,1021.33
2018-07-08T12:17:35.947Z,1021.19
2018-07-08T12:18:36.547Z,1021.25
2018-07-08T12:19:37.139Z,1021.35
2018-07-08T12:20:37.739Z,1021.33
2018-07-08T12:21:38.333Z,1021.22
2018-07-08T12:22:38.937Z,1021.34
2018-07-08T12:23:39.587Z,1021.24
2018-07-08T12:24:40.231Z,1021.35
2018-07-08T12:25:40.830Z,1021.29
2018-07-08T12:26:41.425Z,1021.27
2018-07-08T12:27:42.085Z,1021.31
2018-07-08T12:28:42.624Z,1021.28